Mount Saint Francis, IN (47146)

12:11 PM EDT on July 05, 2015 (GMT -0400)
Lafayette Township Fire Protection District | | Change Station
CLOSE
Current Station
Personal Weather Station
Location: Floyds Knobs, IN
Elevation: 791 ft
Nearby Weather Stations

Elev 791 ft 38.33 °N, 85.87 °W | Updated 36 seconds ago

Mostly Cloudy
Mostly Cloudy
73.5 °F
Feels Like 73 °F
N
2.0
Wind Variable Wind from East
Gusts 2.0 mph

Today
High -- | Low -- °F
--% Chance of Precip.
Yesterday
High -- | Low -- °F
Precip. -- in
6:25 AM 9:10 PM
Waning Gibbous, 84% visible
Pressure 30.07 in
Visibility 7.0 miles
Clouds Overcast 18000 ft
Heat Index 73 °F
Dew Point 69 °F
Humidity 85%
Rainfall 0.00 in
Snow Depth Not available.
UV 2.5 out of 12
Pollen 3.60 out of 12
Air Quality Not available.
Flu Activity Not available.
METAR KSDF 051556Z 07006KT 7SM OVC180 24/19 A3008 RMK AO2 SLP182 T02440189 $

More Conditions Fewer Conditions

Pressure 30.07 in
Visibility 7.0 miles
Clouds Overcast 18000 ft
Heat Index 73 °F
Dew Point 69 °F
Humidity 85%
Rainfall 0.00 in
Snow Depth Not available.
UV 2.5 out of 12
Pollen 3.60 out of 12
Air Quality Not available.
Flu Activity Not available.
METAR KSDF 051556Z 07006KT 7SM OVC180 24/19 A3008 RMK AO2 SLP182 T02440189 $

More Conditions Fewer Conditions

10-Day Weather Forecast

×

Almanac

Astronomy

Jul. 05, 2015 Rise Set
Actual Time
Civil Twilight
Nautical Twilight
Astronomical Twilight
Moon
Length of Visible Light
Length of Day
Tomorrow will be .
, % of the Moon is Illuminated

Today's Extremes

State Highs State Lows

Community

WunderPhotos

Upload Photos

1,835,302 photos uploaded!

WunderBlogs® & News

Nearby

Air Quality

  Air Quality AQ Index Pollutant
Not available.

Snow Depth

Station Depth Elevation

Earthquake Activity

City Distance Mag. Time & Date
Minimum magnitude displayed is 2.5.

Coastal Water Temperatures

Place Temperature

Stations

Nearby Weather Stations

Station Location Temp. Windchill Dew Point Humidity Wind Precip. Elev Updated Type